createdAt,value
2023-01-05T00:04:55.705Z,1.23
2023-01-05T00:09:56.484Z,1.92
2023-01-05T00:15:15.774Z,0.20
2023-01-05T00:20:37.938Z,0.00
2023-01-05T00:25:40.781Z,2.20
2023-01-05T00:30:44.583Z,0.37
2023-01-05T00:35:45.391Z,0.10
2023-01-05T00:40:46.147Z,1.23
2023-01-05T00:45:46.991Z,2.03
2023-01-05T00:50:48.945Z,3.08
2023-01-05T00:55:57.385Z,1.80
2023-01-05T01:00:58.191Z,3.58
2023-01-05T01:05:59.266Z,4.07
2023-01-05T01:11:07.579Z,6.68
2023-01-05T01:16:10.429Z,9.55
2023-01-05T01:21:11.236Z,10.07
2023-01-05T01:26:13.141Z,7.05
2023-01-05T01:31:16.025Z,5.60
2023-01-05T01:36:16.984Z,7.22
2023-01-05T01:41:18.231Z,10.10
2023-01-05T01:46:22.416Z,10.85
2023-01-05T01:51:34.972Z,7.53
2023-01-05T01:56:43.393Z,11.03
2023-01-05T02:01:44.406Z,8.18
2023-01-05T02:06:45.306Z,12.10
2023-01-05T02:12:25.204Z,10.80
2023-01-05T02:17:58.986Z,17.20
2023-01-05T02:24:53.684Z,17.65
2023-01-05T02:30:21.742Z,19.80
2023-01-05T02:35:34.002Z,20.05
2023-01-05T02:40:45.518Z,21.33
2023-01-05T02:45:47.636Z,17.40
2023-01-05T02:50:53.617Z,23.87
2023-01-05T02:56:01.770Z,23.45
2023-01-05T03:01:11.569Z,17.50
2023-01-05T03:06:18.894Z,21.27
2023-01-05T03:11:39.145Z,22.70
2023-01-05T03:16:41.095Z,19.87
2023-01-05T03:22:02.375Z,21.17
2023-01-05T03:27:25.192Z,19.00
2023-01-05T03:32:47.927Z,23.10
2023-01-05T03:37:58.779Z,16.10
2023-01-05T03:43:02.156Z,18.87
2023-01-05T03:48:03.777Z,24.00
2023-01-05T03:53:07.188Z,24.40
2023-01-05T03:58:08.376Z,22.13
2023-01-05T04:03:09.875Z,23.45
2023-01-05T04:08:11.642Z,21.40
2023-01-05T04:13:12.797Z,25.42
2023-01-05T04:18:14.083Z,18.33
2023-01-05T04:23:15.072Z,30.10
2023-01-05T04:28:16.456Z,22.23
2023-01-05T04:33:18.787Z,19.05
2023-01-05T04:38:19.801Z,24.70
2023-01-05T04:43:22.726Z,21.05
2023-01-05T04:48:23.684Z,15.50
2023-01-05T04:53:24.719Z,27.40
2023-01-05T04:58:26.791Z,18.00
2023-01-05T05:08:34.670Z,17.15
2023-01-05T05:13:36.826Z,26.00
2023-01-05T05:18:37.751Z,22.87
2023-01-05T05:23:39.293Z,21.52
2023-01-05T05:28:40.267Z,18.25
2023-01-05T05:33:41.193Z,20.17
2023-01-05T05:38:41.927Z,15.88
2023-01-05T05:43:42.701Z,19.40
2023-01-05T05:48:43.441Z,21.30
2023-01-05T05:53:44.318Z,20.10
2023-01-05T05:58:45.288Z,20.80
2023-01-05T06:03:46.214Z,21.58
2023-01-05T06:08:47.079Z,43.22
2023-01-05T06:13:48.114Z,18.37
2023-01-05T06:18:48.817Z,18.95
2023-01-05T06:23:49.706Z,20.08
2023-01-05T06:28:50.489Z,14.43
2023-01-05T06:33:52.641Z,17.62
2023-01-05T06:38:53.414Z,18.00
2023-01-05T06:43:54.191Z,19.90
2023-01-05T06:48:54.989Z,18.12
2023-01-05T06:53:55.813Z,15.48
2023-01-05T06:58:56.529Z,12.43
2023-01-05T07:03:57.568Z,31.12
2023-01-05T07:08:58.314Z,16.08
2023-01-05T07:13:59.249Z,18.05
2023-01-05T07:18:59.983Z,16.12
2023-01-05T07:24:01.287Z,29.87
2023-01-05T07:29:02.012Z,19.87
2023-01-05T07:34:02.914Z,24.42
2023-01-05T07:39:03.742Z,15.90
2023-01-05T07:44:04.521Z,25.40
2023-01-05T07:49:05.256Z,28.65
2023-01-05T07:54:06.346Z,23.70
2023-01-05T07:59:07.075Z,32.67
2023-01-05T08:04:09.274Z,23.58
2023-01-05T08:09:28.525Z,22.75
2023-01-05T08:14:29.336Z,25.40
2023-01-05T08:19:30.150Z,28.73
2023-01-05T08:24:31.021Z,27.60
2023-01-05T08:29:31.768Z,23.40
2023-01-05T08:34:35.047Z,21.30
2023-01-05T08:39:35.963Z,15.40
2023-01-05T08:44:36.711Z,15.18
2023-01-05T08:49:37.459Z,22.65
2023-01-05T08:54:38.482Z,20.40
2023-01-05T08:59:40.070Z,23.95
2023-01-05T09:04:40.828Z,21.17
2023-01-05T09:09:41.606Z,22.98
2023-01-05T09:14:42.735Z,29.17
2023-01-05T09:19:43.547Z,16.98
2023-01-05T09:24:44.480Z,28.33
2023-01-05T09:29:45.287Z,13.30
2023-01-05T09:34:46.016Z,21.42
2023-01-05T09:39:47.474Z,23.90
2023-01-05T09:44:59.158Z,22.45
2023-01-05T09:50:01.287Z,29.45
2023-01-05T09:55:09.899Z,26.52
2023-01-05T10:00:16.103Z,25.95
2023-01-05T10:05:18.161Z,19.75
2023-01-05T10:10:44.133Z,24.37
2023-01-05T10:15:50.359Z,28.35
2023-01-05T10:21:15.020Z,23.87
2023-01-05T10:27:22.666Z,23.30
2023-01-05T10:34:16.301Z,28.73
2023-01-05T10:40:32.793Z,22.33
2023-01-05T10:45:46.045Z,28.25
2023-01-05T10:51:05.663Z,30.98
2023-01-05T10:56:13.967Z,27.63
2023-01-05T11:01:34.856Z,29.23
2023-01-05T11:06:37.134Z,25.77
2023-01-05T11:11:38.714Z,32.75
2023-01-05T11:16:52.201Z,23.33
2023-01-05T11:21:58.160Z,16.70
2023-01-05T11:27:21.990Z,21.50
2023-01-05T11:32:22.981Z,26.67
2023-01-05T11:37:26.259Z,22.13
2023-01-05T11:42:33.612Z,22.70
2023-01-05T11:47:44.006Z,29.05
2023-01-05T11:52:49.193Z,15.65
2023-01-05T11:57:59.452Z,24.10
2023-01-05T12:06:05.117Z,25.75
2023-01-05T12:11:14.500Z,35.23
2023-01-05T12:17:05.200Z,19.25
2023-01-05T12:25:19.318Z,26.87
2023-01-05T12:36:39.651Z,28.87
2023-01-05T12:45:05.644Z,25.55
2023-01-05T12:50:29.831Z,30.17
2023-01-05T12:55:38.249Z,25.30
2023-01-05T13:00:45.481Z,17.20
2023-01-05T13:06:03.755Z,18.98
2023-01-05T13:11:17.475Z,21.17
2023-01-05T13:16:22.527Z,24.37
2023-01-05T13:21:26.011Z,22.75
2023-01-05T13:26:27.073Z,28.38
2023-01-05T13:33:29.360Z,22.80
2023-01-05T13:39:05.921Z,25.40
2023-01-05T13:51:05.751Z,22.00
2023-01-05T13:56:19.225Z,26.42
2023-01-05T14:01:34.802Z,31.62
2023-01-05T14:06:42.774Z,34.58
2023-01-05T14:12:35.615Z,24.73
2023-01-05T14:17:57.688Z,32.60
2023-01-05T14:23:00.975Z,27.48
2023-01-05T14:28:49.093Z,28.40
2023-01-05T14:34:06.576Z,23.52
2023-01-05T14:39:27.731Z,30.25
2023-01-05T14:44:35.315Z,39.95
2023-01-05T14:49:40.665Z,30.25
2023-01-05T14:56:19.545Z,34.75
2023-01-05T15:01:34.967Z,31.92
2023-01-05T15:09:49.779Z,40.88
2023-01-05T15:15:17.003Z,26.00
2023-01-05T15:22:13.397Z,28.95
2023-01-05T15:27:59.656Z,38.97
2023-01-05T15:33:59.274Z,46.55
2023-01-05T15:39:00.190Z,41.70
2023-01-05T15:44:01.496Z,29.60
2023-01-05T15:49:02.283Z,30.27
2023-01-05T15:54:04.719Z,37.60
2023-01-05T15:59:30.547Z,30.10
2023-01-05T16:04:31.279Z,29.77
2023-01-05T16:09:36.318Z,27.50
2023-01-05T16:14:43.251Z,31.33
2023-01-05T16:19:48.426Z,27.52
2023-01-05T16:25:09.324Z,27.55
2023-01-05T16:30:35.480Z,30.90
2023-01-05T16:36:36.951Z,35.75
2023-01-05T16:42:31.294Z,29.80
2023-01-05T16:47:37.941Z,41.78
2023-01-05T16:52:46.336Z,40.83
2023-01-05T16:57:48.325Z,38.65
2023-01-05T17:02:49.612Z,20.65
2023-01-05T17:08:36.031Z,28.55
2023-01-05T17:13:51.650Z,24.90
2023-01-05T17:18:52.452Z,53.67
2023-01-05T17:23:56.077Z,34.30
2023-01-05T17:34:02.034Z,36.47
2023-01-05T17:39:03.456Z,32.15
2023-01-05T17:44:05.248Z,43.53
2023-01-05T17:49:11.550Z,26.87
2023-01-05T17:54:12.661Z,21.00
2023-01-05T17:59:13.812Z,42.35
2023-01-05T18:04:14.631Z,23.35
2023-01-05T18:09:15.720Z,14.90
2023-01-05T18:14:16.507Z,15.38
2023-01-05T18:19:17.332Z,27.27
2023-01-05T18:24:18.092Z,21.10
2023-01-05T18:29:19.074Z,20.52
2023-01-05T18:34:19.915Z,11.00
2023-01-05T18:39:21.709Z,14.15
2023-01-05T18:44:22.788Z,21.33
2023-01-05T18:49:23.578Z,20.80
2023-01-05T18:54:24.363Z,12.88
2023-01-05T18:59:25.633Z,14.25
2023-01-05T19:04:26.823Z,12.50
2023-01-05T19:09:27.913Z,20.95
2023-01-05T19:14:28.822Z,20.05
2023-01-05T19:19:29.722Z,9.07
2023-01-05T19:24:30.988Z,8.68
2023-01-05T19:29:31.861Z,5.07
2023-01-05T19:34:32.585Z,5.12
2023-01-05T19:39:33.973Z,7.90
2023-01-05T19:44:34.960Z,8.20
2023-01-05T19:49:35.753Z,11.20
2023-01-05T19:54:38.545Z,7.18
2023-01-05T19:59:39.407Z,9.00
2023-01-05T20:04:41.702Z,4.18
2023-01-05T20:09:42.627Z,12.03
2023-01-05T20:14:43.777Z,8.48
2023-01-05T20:19:44.824Z,5.50
2023-01-05T20:24:45.654Z,8.95
2023-01-05T20:29:46.650Z,4.62
2023-01-05T20:34:53.908Z,3.55
2023-01-05T20:39:59.335Z,4.65
2023-01-05T20:45:02.119Z,8.57
2023-01-05T20:50:03.211Z,7.18
2023-01-05T20:55:04.321Z,4.03
2023-01-05T21:00:05.929Z,8.13
2023-01-05T21:05:08.958Z,7.40
2023-01-05T21:10:09.814Z,6.82
2023-01-05T21:15:11.257Z,7.07
2023-01-05T21:20:12.032Z,5.12
2023-01-05T21:25:13.398Z,3.97
2023-01-05T21:30:14.254Z,4.93
2023-01-05T21:35:15.184Z,7.57
2023-01-05T21:40:15.954Z,11.77
2023-01-05T21:45:17.491Z,5.12
2023-01-05T21:50:37.160Z,3.75
2023-01-05T21:55:56.435Z,3.22
2023-01-05T22:00:59.205Z,3.85
2023-01-05T22:06:00.008Z,4.00
2023-01-05T22:11:02.520Z,4.65
2023-01-05T22:16:04.275Z,3.60
2023-01-05T22:21:07.847Z,3.10
2023-01-05T22:26:11.873Z,2.10
2023-01-05T22:31:15.695Z,2.67
2023-01-05T22:36:18.489Z,2.28
2023-01-05T22:41:22.986Z,5.37
2023-01-05T22:46:28.552Z,7.45
2023-01-05T22:51:32.434Z,9.07
2023-01-05T22:56:34.159Z,14.30
2023-01-05T23:01:38.507Z,13.60
2023-01-05T23:06:40.057Z,11.88
2023-01-05T23:11:42.258Z,16.87
2023-01-05T23:16:43.545Z,22.08
2023-01-05T23:21:45.140Z,32.55
2023-01-05T23:26:45.940Z,24.75
2023-01-05T23:31:47.423Z,81.15
2023-01-05T23:36:48.193Z,51.17
2023-01-05T23:41:48.999Z,30.15
2023-01-05T23:46:49.731Z,23.98
2023-01-05T23:51:50.551Z,21.95
2023-01-05T23:56:51.273Z,39.13
